Latest Weather Observations for Middle Percy Island

IDQ60801

Issued at 8:05 pm EST Saturday 25 October 2014 (issued every 30 minutes, with the page automatically refreshed every 10 minutes)

About weather observations | Map of weather stations | Latest weather observations for QLD | Other Formats
Station Details ID: 200001 Name: MIDDLE PERCY ISLAND Lat: -21.66 Lon: 150.27 Height: 208.7 m
Data from the previous 72 hours. | See also: Recent months at Middle Percy Island
Date/Time
EST
Temp
°C
App
Temp
°C
Dew
Point
Rel
Hum
%
Delta-T
°C
Wind Press
QNH
hPa
Press
MSL
hPa
Rain
since 9 am
mm
Dir
 
Spd
km/h
Gust
km/h
Spd
kts
Gust
kts
25/08:00pm 20.6 19.7 15.8 74 2.9 NE 15 22 8 12 1019.9 1019.0 0.0
25/07:30pm 20.6 20.1 16.0 75 2.8 NE 13 22 7 12 1019.7 1018.8 0.0
25/07:00pm 20.6 19.4 16.0 75 2.8 NE 17 28 9 15 1019.3 1018.4 0.0
25/06:30pm 20.6 19.8 16.2 76 2.7 NE 15 22 8 12 1019.1 1018.1 0.0
25/06:00pm 20.8 20.0 16.2 75 2.8 ENE 15 24 8 13 1018.8 1017.8 0.0
25/05:30pm 21.3 20.5 16.0 72 3.2 NE 15 22 8 12 1018.5 1017.5 0.0
25/05:00pm 21.9 21.1 16.2 70 3.5 NE 15 24 8 13 1018.4 1017.4 0.0
25/04:30pm 23.0 22.7 16.5 67 4.0 ENE 13 20 7 11 1018.3 1017.3 0.0
25/04:00pm 23.5 22.7 17.0 67 4.0 SE 17 24 9 13 1018.2 1017.2 0.0
25/03:30pm 23.3 21.7 16.1 64 4.4 SE 19 24 10 13 1018.2 1017.2 0.0
25/03:00pm 23.7 22.9 16.2 63 4.6 SE 15 24 8 13 1018.6 1017.6 0.0
25/02:30pm 24.5 24.1 16.2 60 5.1 ESE 13 19 7 10 1018.8 1017.8 0.0
25/02:00pm 24.6 23.8 16.1 59 5.2 ESE 15 20 8 11 1019.0 1018.0 0.0
25/01:30pm 24.3 23.1 16.0 60 5.1 SE 17 28 9 15 1019.3 1018.4 0.0
25/01:00pm 24.1 22.6 15.3 58 5.3 SE 17 24 9 13 1019.6 1018.7 0.0
25/12:30pm 25.2 24.6 16.6 59 5.3 SE 15 24 8 13 1020.0 1019.1 0.0
25/12:00pm 25.2 24.5 17.4 62 4.9 SE 17 22 9 12 1020.5 1019.5 0.0
25/11:30am 24.7 23.7 16.7 61 5.0 ESE 17 26 9 14 1021.0 1020.0 0.0
25/11:00am 24.4 23.4 16.6 61 4.8 SE 17 26 9 14 1021.2 1020.2 0.0
25/10:30am 23.4 22.7 15.5 61 4.8 SE 13 20 7 11 1021.6 1020.6 0.0
25/10:00am 24.1 23.5 15.6 59 5.2 ESE 13 20 7 11 1021.9 1020.9 0.0
25/09:30am 24.5 24.4 16.0 59 5.2 ESE 11 17 6 9 1021.8 1020.8 0.0
25/09:00am 24.1 24.0 16.1 61 4.9 E 11 19 6 10 1021.9 1020.9 0.0
25/08:30am 23.0 22.4 15.6 63 4.5 ENE 13 22 7 12 1021.6 1020.6 0.0
25/08:00am 23.0 22.2 16.1 65 4.2 NE 15 22 8 12 1021.5 1020.5 0.0
25/07:30am 22.8 22.9 15.4 63 4.5 ENE 9 17 5 9 1021.5 1020.5 0.0
25/07:00am 22.5 23.0 16.5 69 3.7 E 9 15 5 8 1021.4 1020.4 0.0
25/06:30am 21.9 22.9 16.4 71 3.4 ESE 6 11 3 6 1020.9 1019.9 0.0
25/06:00am 20.8 21.5 16.2 75 2.8 E 7 11 4 6 1020.8 1019.8 0.0
25/05:30am 20.1 20.4 16.1 78 2.4 E 9 15 5 8 1020.5 1019.5 0.0
25/05:00am 20.0 20.3 16.0 78 2.4 E 9 17 5 9 1020.1 1019.2 0.0
25/04:30am 19.9 20.3 16.2 79 2.2 E 9 17 5 9 1019.8 1018.9 0.0
25/04:00am 20.0 20.4 16.4 80 2.2 E 9 17 5 9 1019.9 1019.0 0.0
25/03:30am 19.8 20.6 16.4 81 2.1 E 7 15 4 8 1019.7 1018.8 0.0
25/03:00am 19.8 20.2 16.4 81 2.1 E 9 17 5 9 1019.8 1018.9 0.0
25/02:30am 19.8 20.1 16.1 79 2.2 E 9 19 5 10 1019.8 1018.9 0.0
25/02:00am 19.8 19.8 16.3 80 2.1 E 11 17 6 9 1020.0 1019.1 0.0
25/01:30am 19.9 20.0 16.5 81 2.1 E 11 17 6 9 1020.5 1019.5 0.0
25/01:00am 19.9 20.3 16.2 79 2.2 ENE 9 15 5 8 1021.0 1020.0 0.0
25/12:30am 20.2 20.3 16.4 79 2.3 E 11 17 6 9 1021.4 1020.4 0.0
25/12:00am 20.2 20.1 16.0 77 2.5 E 11 19 6 10 1021.6 1020.6 0.0
 
Date/Time
EST
Temp
°C
App
Temp
°C
Dew
Point
Rel
Hum
%
Delta-T
°C
Wind Press
QNH
hPa
Press
MSL
hPa
Rain
since 9 am
mm
Dir
 
Spd
km/h
Gust
km/h
Spd
kts
Gust
kts
24/11:30pm 20.1 20.7 16.7 81 2.1 E 9 19 5 10 1021.6 1020.6 0.0
24/11:00pm 20.4 20.6 16.8 80 2.2 ESE 11 19 6 10 1022.0 1021.0 0.0
24/10:30pm 20.1 20.7 16.9 82 2.0 ESE 9 15 5 8 1022.1 1021.1 0.0
24/10:00pm 20.1 20.3 16.7 81 2.1 ESE 11 19 6 10 1022.2 1021.2 0.0
24/09:30pm 20.1 20.6 16.5 80 2.2 ESE 9 19 5 10 1022.1 1021.1 0.0
24/09:00pm 20.3 19.8 16.9 81 2.1 ESE 15 26 8 14 1022.0 1021.0 0.0
24/08:30pm 20.1 21.0 16.5 80 2.2 ESE 7 19 4 10 1021.7 1020.7 0.0
24/08:00pm 20.3 20.5 16.7 80 2.2 ESE 11 17 6 9 1021.6 1020.6 0.0
24/07:30pm 20.4 20.9 16.6 79 2.3 ESE 9 19 5 10 1021.5 1020.5 0.0
24/07:00pm 20.4 20.2 16.6 79 2.3 ESE 13 20 7 11 1021.2 1020.2 0.0
24/06:30pm 20.4 20.0 16.2 77 2.5 ESE 13 22 7 12 1020.9 1019.9 0.0
24/06:00pm 20.5 18.9 16.1 76 2.7 ESE 19 26 10 14 1020.4 1019.4 0.0
24/05:30pm 21.0 19.8 16.0 73 3.0 ESE 17 28 9 15 1020.1 1019.2 0.0
24/05:00pm 21.7 20.1 16.0 70 3.5 ESE 19 28 10 15 1019.8 1018.9 0.0
24/04:30pm 21.5 19.1 15.3 68 3.7 ESE 22 30 12 16 1019.6 1018.7 0.0
24/04:00pm 22.4 20.0 15.5 65 4.2 SE 22 30 12 16 1019.3 1018.4 0.0
24/03:30pm 23.2 20.9 15.8 63 4.5 ESE 22 32 12 17 1019.4 1018.5 0.0
24/03:00pm 23.3 20.8 15.1 60 4.9 SE 22 30 12 16 1019.7 1018.8 0.0
24/02:30pm 23.7 21.6 15.2 59 5.1 ESE 20 28 11 15 1019.8 1018.9 0.0
24/02:00pm 24.0 21.7 14.7 56 5.6 SE 20 28 11 15 1019.9 1019.0 0.0
24/01:30pm 24.3 22.4 14.1 53 6.1 ESE 17 24 9 13 1020.6 1019.6 0.0
24/01:00pm 24.2 22.2 14.0 53 6.0 ESE 17 24 9 13 1020.8 1019.8 0.0
24/12:30pm 25.2 23.7 15.2 54 6.1 SE 17 24 9 13 1021.1 1020.1 0.0
24/12:00pm 24.7 23.1 15.1 55 5.8 ESE 17 24 9 13 1021.4 1020.4 0.0
24/11:30am 24.1 22.1 13.9 53 6.0 SE 17 28 9 15 1021.5 1020.5 0.0
24/11:00am 25.3 23.9 14.4 50 6.5 SE 15 24 8 13 1021.8 1020.8 0.0
24/10:30am 24.0 22.4 13.8 53 6.0 ESE 15 22 8 12 1021.9 1020.9 0.0
24/10:00am 23.6 22.0 13.8 54 5.8 SE 15 22 8 12 1022.1 1021.1 0.0
24/09:30am 23.0 20.9 13.5 55 5.6 SE 17 22 9 12 1022.2 1021.2 0.0
24/09:00am 23.0 21.4 13.8 56 5.4 SE 15 20 8 11 1022.2 1021.2 0.0
24/08:30am 23.5 21.8 13.7 54 5.8 ESE 15 22 8 12 1022.2 1021.2 0.0
24/08:00am 22.4 20.7 13.7 58 5.1 SE 15 22 8 12 1022.0 1021.0 0.0
24/07:30am 21.1 19.5 12.8 59 4.8 ESE 13 22 7 12 1021.7 1020.7 0.0
24/07:00am 21.0 19.8 12.9 60 4.6 ESE 11 15 6 8 1021.4 1020.4 0.0
24/06:30am 21.1 21.1 14.3 65 4.0 ESE 7 13 4 7 1021.2 1020.2 0.0
24/06:00am 19.9 19.6 14.3 70 3.3 E 9 15 5 8 1020.9 1019.9 0.0
24/05:30am 18.9 18.9 14.2 74 2.7 E 7 11 4 6 1020.5 1019.5 0.0
24/05:00am 19.1 18.7 14.1 73 2.9 E 9 15 5 8 1020.0 1019.1 0.0
24/04:30am 19.3 18.9 14.1 72 3.0 E 9 15 5 8 1019.8 1018.9 0.0
24/04:00am 19.2 18.4 14.0 72 3.0 E 11 17 6 9 1019.5 1018.6 0.0
24/03:30am 19.2 18.5 14.2 73 2.9 E 11 17 6 9 1019.6 1018.7 0.0
24/03:00am 19.0 18.2 14.1 73 2.8 E 11 15 6 8 1019.8 1018.9 0.0
24/02:30am 19.1 18.6 13.9 72 3.0 E 9 13 5 7 1019.7 1018.8 0.0
24/02:00am 19.2 19.1 14.0 72 3.0 ENE 7 13 4 7 1020.0 1019.1 0.0
24/01:30am 19.4 18.5 13.8 70 3.2 ENE 11 17 6 9 1020.4 1019.4 0.0
24/01:00am 19.5 18.9 14.5 73 2.9 E 11 17 6 9 1020.8 1019.8 0.0
24/12:30am 19.7 19.1 14.7 73 2.9 E 11 19 6 10 1021.1 1020.1 0.0
24/12:00am 19.5 19.5 15.2 76 2.5 E 9 17 5 9 1021.3 1020.3 0.0
 
Date/Time
EST
Temp
°C
App
Temp
°C
Dew
Point
Rel
Hum
%
Delta-T
°C
Wind Press
QNH
hPa
Press
MSL
hPa
Rain
since 9 am
mm
Dir
 
Spd
km/h
Gust
km/h
Spd
kts
Gust
kts
23/11:30pm 19.7 19.3 15.1 75 2.7 E 11 17 6 9 1021.7 1020.7 0.0
23/11:00pm 19.8 17.4 14.4 71 3.2 ENE 20 32 11 17 1021.2 1020.2 0.0
23/10:30pm 20.0 17.5 14.1 69 3.4 NE 20 30 11 16 1021.0 1020.0 0.0
23/10:00pm 19.9 16.9 13.6 67 3.6 NE 22 32 12 17 1020.9 1019.9 0.0
23/09:30pm 19.7 17.6 14.7 73 2.9 NE 19 28 10 15 1021.1 1020.1 0.0
23/09:00pm 19.6 17.9 14.6 73 2.9 ENE 17 24 9 13 1020.9 1019.9 0.0
23/08:30pm 19.7 19.0 14.3 71 3.2 E 11 22 6 12 1020.8 1019.8 0.0
23/08:00pm 19.7 19.1 14.5 72 3.0 E 11 22 6 12 1020.6 1019.6 0.0
23/07:30pm 19.8 18.9 14.8 73 3.0 E 13 26 7 14 1020.6 1019.6 0.0
23/07:00pm 19.9 18.0 15.1 74 2.8 ESE 19 30 10 16 1020.4 1019.4 0.0
23/06:30pm 20.1 18.2 15.3 74 2.9 ESE 19 32 10 17 1020.0 1019.1 0.0
23/06:00pm 20.3 17.4 15.1 72 3.1 SE 24 33 13 18 1019.5 1018.6 0.0
23/05:30pm 20.9 17.5 14.8 68 3.6 SE 26 33 14 18 1019.3 1018.4 0.0
23/05:00pm 21.6 19.4 15.0 66 3.9 SE 20 30 11 16 1019.0 1018.0 0.0
23/04:30pm 21.9 19.0 15.0 65 4.1 SE 24 32 13 17 1018.6 1017.6 0.0
23/04:00pm 22.4 19.6 15.3 64 4.3 ESE 24 33 13 18 1018.6 1017.6 0.0
23/03:30pm 22.9 20.0 15.2 62 4.6 ESE 24 32 13 17 1018.5 1017.5 0.0
23/03:00pm 23.5 21.1 15.5 60 4.8 SE 22 32 12 17 1018.6 1017.6 0.0
23/02:30pm 23.2 20.3 15.0 60 4.9 ESE 24 33 13 18 1018.9 1017.9 0.0
23/02:00pm 23.5 20.4 15.5 60 4.8 ESE 26 33 14 18 1019.0 1018.0 0.0
23/01:30pm 23.4 19.8 15.2 60 4.9 ESE 28 35 15 19 1019.2 1018.2 0.0
23/01:00pm 23.6 19.5 14.9 58 5.2 SE 30 39 16 21 1019.5 1018.6 0.0
23/12:30pm 23.9 19.4 14.9 57 5.4 SE 32 43 17 23 1019.7 1018.8 0.0
23/12:00pm 23.7 20.0 14.9 57 5.3 SE 28 37 15 20 1020.4 1019.4 0.0
23/11:30am 23.8 20.1 15.0 57 5.3 SE 28 37 15 20 1020.7 1019.7 0.0
23/11:00am 24.0 20.9 15.5 59 5.2 SE 26 41 14 22 1020.8 1019.8 0.0
23/10:30am 24.2 20.8 15.7 59 5.2 SE 28 41 15 22 1021.1 1020.1 0.0
23/10:00am 23.3 19.0 15.4 61 4.8 SE 32 43 17 23 1021.1 1020.1 0.0
23/09:30am 22.9 18.2 14.2 58 5.2 SE 32 41 17 22 1021.2 1020.2 0.0
23/09:00am 22.6 18.0 13.4 56 5.3 SE 30 41 16 22 1021.4 1020.4 0.0
23/08:30am 21.7 16.8 13.6 60 4.7 SE 32 46 17 25 1021.2 1020.2 0.0
23/08:00am 21.8 17.6 13.4 59 4.9 SE 28 46 15 25 1021.2 1020.2 0.0
23/07:30am 20.7 16.4 13.2 62 4.3 SSE 28 39 15 21 1021.2 1020.2 0.0
23/07:00am 20.9 16.6 13.1 61 4.5 SSE 28 39 15 21 1021.0 1020.0 0.0
23/06:30am 20.3 16.8 13.5 65 3.9 SSE 24 33 13 18 1020.7 1019.7 0.0
23/06:00am 19.7 16.2 14.5 72 3.0 SSE 26 35 14 19 1020.5 1019.5 0.0
23/05:30am 19.2 16.3 15.1 77 2.4 SSE 24 33 13 18 1020.1 1019.2 0.0
23/05:00am 19.2 16.5 15.5 79 2.2 SSE 24 33 13 18 1019.9 1019.0 0.0
23/04:30am 19.4 16.7 15.7 79 2.2 SSE 24 32 13 17 1019.8 1018.9 0.0
23/04:00am 19.6 17.2 16.3 81 2.0 SSE 24 33 13 18 1019.6 1018.7 0.0
23/03:30am 19.5 16.9 16.0 80 2.1 SSE 24 32 13 17 1019.6 1018.7 0.0
23/03:00am 19.7 17.4 15.8 78 2.3 SE 22 32 12 17 1019.7 1018.8 0.0
23/02:30am 19.7 17.5 16.0 79 2.2 SE 22 33 12 18 1019.9 1019.0 0.0
23/02:00am 20.0 18.4 16.6 81 2.1 SE 20 30 11 16 1020.4 1019.4 0.0
23/01:30am 19.9 17.0 16.2 79 2.2 SE 26 33 14 18 1020.7 1019.7 0.0
23/01:00am 20.1 18.0 16.3 79 2.3 ESE 22 35 12 19 1021.2 1020.2 0.0
23/12:30am 19.9 18.8 16.3 80 2.2 ESE 17 28 9 15 1021.6 1020.6 0.0
23/12:00am 20.0 19.2 16.2 79 2.3 ESE 15 28 8 15 1021.7 1020.7 0.0
 
Date/Time
EST
Temp
°C
App
Temp
°C
Dew
Point
Rel
Hum
%
Delta-T
°C
Wind Press
QNH
hPa
Press
MSL
hPa
Rain
since 9 am
mm
Dir
 
Spd
km/h
Gust
km/h
Spd
kts
Gust
kts
22/11:30pm 20.1 18.9 16.1 78 2.4 E 17 30 9 16 1021.8 1020.8 0.0
22/11:00pm 19.9 19.9 16.2 79 2.2 ESE 11 26 6 14 1021.8 1020.8 0.0
22/10:30pm 20.0 18.3 15.8 77 2.5 E 19 41 10 22 1021.8 1020.8 0.0
22/10:00pm 20.0 18.1 15.8 77 2.5 E 20 35 11 19 1021.7 1020.7 0.0
22/09:30pm 20.1 18.4 15.7 76 2.6 ESE 19 41 10 22 1021.4 1020.4 0.0
22/09:00pm 20.0 18.1 15.2 74 2.8 ESE 19 35 10 19 1021.5 1020.5 0.0
22/08:30pm 20.1 15.4 14.9 72 3.1 ESE 33 54 18 29 1021.5 1020.5 0.0
22/08:23pm 20.1 15.0 14.9 72 3.1 ESE 35 54 19 29 1021.5 1020.5 0.0

Other Formats:

Comma delimited format used in spreadsheet applications
http://www.bom.gov.au/fwo/IDQ60801/IDQ60801.94372.axf

JavaScript Object Notation format (JSON) in row-major order
http://www.bom.gov.au/fwo/IDQ60801/IDQ60801.94372.json